Flight Track Log - Related Links

Times and Time Zones

All times are in EDT time to prevent confusion due to time zone crossing. See the N10EC flight status page for this flight to view local times or setup timezone preferences in your user account.


Time Position Orientation Groundspeed Altitude Reporting Facility
EDT Latitude Longitude Course Direction KTS MPH feet Rate Location/Type
Tue 03:35:22 PM 36.3808 -83.6286 241° Southwest 281 323 4,200  Level Atlanta Center
Tue 03:36:22 PM 36.3561 -83.6803 239° Southwest 215 247 6,200 2,050 Climbing Atlanta Center
Tue 03:37:22 PM 36.3311 -83.7372 241° Southwest 193 222 8,300 2,050 Climbing Atlanta Center
Tue 03:38:00 PM 36.2194 -83.9612 238° Southwest  Level FlightAware Approximate
Tue 03:38:22 PM 36.3061 -83.7939 241° Southwest 188 216 10,300  Level Atlanta Center
Tue 03:39:00 PM 36.1879 -84.0300 241° Southwest  Level FlightAware Approximate
Tue 03:39:22 PM 36.2814 -83.8558 244° Southwest 193 222 12,300  Level Atlanta Center
Tue 03:40:00 PM 36.1566 -84.0989 241° Southwest  Level FlightAware Approximate
Tue 03:40:22 PM 36.2522 -83.9178 240° Southwest 210 242 13,600  Level Atlanta Center
Tue 03:41:22 PM 36.2208 -83.9872 241° Southwest 224 258 15,300 1,150 Climbing Atlanta Center
Tue 03:42:22 PM 36.1875 -84.0644 242° Southwest 241 277 15,900 350 Climbing Atlanta Center
Tue 03:43:22 PM 36.1500 -84.1544 243° Southwest 269 310 16,000  Climbing Atlanta Center
Tue 03:44:22 PM 36.1103 -84.2417 241° Southwest 284 327 15,900  Descending Atlanta Center
Tue 03:45:22 PM 36.0706 -84.3289 241° Southwest 295 339 16,000 50 Climbing Atlanta Center
Tue 03:46:22 PM 36.0328 -84.4186 243° Southwest 295 339 16,000  Level Atlanta Center
Tue 03:47:22 PM 35.9928 -84.5058 240° Southwest 295 339 16,000  Level Atlanta Center
Tue 03:48:22 PM 35.9528 -84.5928 240° Southwest 295 339 16,000  Level Atlanta Center
Tue 03:49:22 PM 35.9147 -84.6822 242° Southwest 295 339 16,000 -50 Level Atlanta Center
Tue 03:50:22 PM 35.8747 -84.7692 240° Southwest 290 334 15,900  Descending Atlanta Center
Tue 03:51:22 PM 35.8386 -84.8558 243° Southwest 290 334 16,000  Climbing Atlanta Center
Tue 03:52:22 PM 35.7942 -84.9475 239° Southwest 290 334 15,900 -36 Descending Atlanta Center
Tue 03:54:09 PM 35.7683 -85.1122 259° West 277 319 15,900 36 Level Memphis Center
Tue 03:55:09 PM 35.7597 -85.2050 264° West 272 313 16,000 50 Climbing Memphis Center
Tue 03:56:08 PM 35.7511 -85.3000 264° West 277 319 16,000 -50 Level Memphis Center
Tue 03:57:09 PM 35.7422 -85.3953 263° West 277 319 15,900 -200 Descending Memphis Center
Tue 03:58:08 PM 35.7356 -85.4903 265° West 277 319 15,600 -605 Descending Memphis Center
Tue 03:59:08 PM 35.7250 -85.5881 262° West 284 327 14,700 -942 Descending Memphis Center
Tue 04:00:09 PM 35.7164 -85.6908 264° West 296 341 13,700 -950 Descending Memphis Center
Tue 04:01:08 PM 35.7072 -85.7858 263° West 296 341 12,800 -950 Descending Memphis Center
Tue 04:02:09 PM 35.7006 -85.8886 265° West 296 341 11,800 -992 Descending Memphis Center
Tue 04:03:09 PM 35.6914 -85.9836 263° West 290 334 10,800 -1,059 Descending Memphis Center
Tue 04:04:08 PM 35.6864 -86.0758 266° West 290 334 9,700 -1,050 Descending Memphis Center
Tue 04:05:09 PM 35.7306 -86.1453 308° West 257 296 8,700 -1,140 Descending Memphis Center
Tue 04:06:09 PM 35.7639 -86.2075 303° West 237 273 7,400 -1,500 Descending Memphis Center
Tue 04:07:09 PM 35.7847 -86.2678 293° West 218 251 5,700 -1,714 Descending Memphis Center
Tue 04:08:08 PM 35.8119 -86.3381 296° West 218 251 4,000 -900 Descending Memphis Center
Tue 04:09:09 PM 35.8369 -86.4033 295° West 218 251 3,900 -149 Descending Memphis Center
Tue 04:10:09 PM 35.8600 -86.4739 292° West 218 251 3,700 -500 Descending Memphis Center
Tue 04:11:09 PM 35.8972 -86.5339 307° West 218 251 2,900 -400 Descending Memphis Center
Tue 04:12:09 PM 35.9425 -86.5803 320° Northwest 213 245 2,900 -151 Level Memphis Center
Tue 04:13:08 PM 35.9900 -86.6294 320° Northwest 201 231 2,600 -450 Descending Memphis Center
Tue 04:14:09 PM 36.0308 -86.6714 320° Northwest 196 226 2,000 -595 Descending Memphis Center
Tue 04:15:09 PM 36.0672 -86.7006 327° Northwest 177 204 1,400 -605 Descending Memphis Center
Tue 04:16:08 PM 36.0939 -86.6942 11° North 137 158 800 -610 Descending Memphis Center
Tue 04:18:00 PM 36.1167 -86.6667 141° Southeast  Level FlightAware Approximate

Login

Don't have an account? Register now (free) for customized features, flight alerts, and more!